Asteria — WDE5489 — position and weather

sailwx.info

Track history (hours):
 
Tides and Currents Weather Stations Pressure Air Temp Water Temp Dewpoint Dewpoint Depression Visibility Wind Speed Wind Dir Waves Ship Positions

Asteria

Owner: Boston HarborCruises, Boston, MA. More information available from US FCC via Universal Licensing System and Coast Guard Vessel Documentation Center.

Last reported at 2014-Oct-21 23:15 UTC. Time now 2014-Oct-25 12:04 UTC.
Position N 42°18' W 070°58'.

Length 33 m; draft 2 m.

Type: High speed craft. MMSI: 367367470.

Date/timePositionNaut miles runAvg speedWind from/ knotsBaromVisibWave heightAir tempDewpointWater temp
2014-Oct-21 23:15N 42°18' W 070°58'1 0.1
2014-Oct-20 22:26N 42°19' W 070°60'1 1.4
2014-Oct-20 21:32N 42°20' W 071°00'  
2014-Oct-16 10:15N 42°18' W 070°59'3 0.3
2014-Oct-15 23:25N 42°16' W 070°56'7 7.5
2014-Oct-15 22:31N 42°21' W 071°02'32 7.3
2014-Oct-15 18:07N 42°13' W 070°20'29 6.3
2014-Oct-15 13:30N 42°19' W 070°59'4 2.6
2014-Oct-15 12:08N 42°21' W 071°02'8 8.8
2014-Oct-15 11:16N 42°15' W 070°55'8 8.3
2014-Oct-15 10:21N 42°21' W 071°02'8 9.2
2014-Oct-15 09:31N 42°15' W 070°55'7 0.7
2014-Oct-15 00:04N 42°21' W 071°01'711.6
2014-Oct-14 23:30N 42°15' W 070°55'8 7.8
2014-Oct-14 22:31N 42°21' W 071°02'2 1.9
2014-Oct-14 21:34N 42°20' W 071°00'3 0.1
2014-Oct-13 16:23N 42°20' W 070°56'  
Track history (hours):
 
Tides and Currents Weather Stations Pressure Air Temp Water Temp Dewpoint Dewpoint Depression Visibility Wind Speed Wind Dir Waves Ship Positions

Asteria

Owner: Boston HarborCruises, Boston, MA. More information available from US FCC via Universal Licensing System and Coast Guard Vessel Documentation Center.

Last reported at 2014-Oct-21 23:15 UTC. Time now 2014-Oct-25 12:04 UTC.
Position N 42°18' W 070°58'.

Length 33 m; draft 2 m.

Type: High speed craft. MMSI: 367367470.

Date/timePositionNaut miles runAvg speedWind from/ knotsBaromVisibWave heightAir tempDewpointWater temp
2014-Oct-21 23:15N 42°18' W 070°58'1 0.1
2014-Oct-20 22:26N 42°19' W 070°60'1 1.4
2014-Oct-20 21:32N 42°20' W 071°00'  
2014-Oct-16 10:15N 42°18' W 070°59'3 0.3
2014-Oct-15 23:25N 42°16' W 070°56'7 7.5
2014-Oct-15 22:31N 42°21' W 071°02'32 7.3
2014-Oct-15 18:07N 42°13' W 070°20'29 6.3
2014-Oct-15 13:30N 42°19' W 070°59'4 2.6
2014-Oct-15 12:08N 42°21' W 071°02'8 8.8
2014-Oct-15 11:16N 42°15' W 070°55'8 8.3
2014-Oct-15 10:21N 42°21' W 071°02'8 9.2
2014-Oct-15 09:31N 42°15' W 070°55'7 0.7
2014-Oct-15 00:04N 42°21' W 071°01'711.6
2014-Oct-14 23:30N 42°15' W 070°55'8 7.8
2014-Oct-14 22:31N 42°21' W 071°02'2 1.9
2014-Oct-14 21:34N 42°20' W 071°00'3 0.1
2014-Oct-13 16:23N 42°20' W 070°56'  

Dump ship's entire track history